createdAt,value
2022-09-21T00:00:32.396Z,102778.97
2022-09-21T00:03:01.875Z,102771.66
2022-09-21T00:05:31.670Z,102773.09
2022-09-21T00:08:03.399Z,102768.44
2022-09-21T00:10:33.986Z,102774.94
2022-09-21T00:13:08.113Z,102771.56
2022-09-21T00:15:37.568Z,102768.16
2022-09-21T00:18:06.946Z,102770.22
2022-09-21T00:20:37.376Z,102770.59
2022-09-21T00:23:06.202Z,102764.84
2022-09-21T00:25:39.262Z,102769.25
2022-09-21T00:28:10.750Z,102771.53
2022-09-21T00:30:39.561Z,102781.50
2022-09-21T00:33:08.383Z,102780.81
2022-09-21T00:35:41.809Z,102784.56
2022-09-21T00:38:10.868Z,102777.69
2022-09-21T00:40:40.509Z,102782.47
2022-09-21T00:43:18.853Z,102783.59
2022-09-21T00:45:52.976Z,102777.91
2022-09-21T00:48:22.124Z,102786.06
2022-09-21T00:50:56.376Z,102780.66
2022-09-21T00:53:25.340Z,102788.09
2022-09-21T00:55:59.944Z,102788.03
2022-09-21T00:58:35.170Z,102787.94
2022-09-21T01:01:06.202Z,102783.75
2022-09-21T01:03:35.298Z,102787.25
2022-09-21T01:06:04.307Z,102781.84
2022-09-21T01:08:35.172Z,102786.38
2022-09-21T01:11:40.778Z,102781.00
2022-09-21T01:14:37.851Z,102796.50
2022-09-21T01:17:16.708Z,102794.06
2022-09-21T01:20:16.475Z,102793.28
2022-09-21T01:23:05.962Z,102786.22
2022-09-21T01:25:49.157Z,102789.97
2022-09-21T01:28:33.175Z,102783.41
2022-09-21T01:31:08.863Z,102785.97
2022-09-21T01:33:44.439Z,102787.88
2022-09-21T01:36:19.192Z,102783.06
2022-09-21T01:38:53.449Z,102785.97
2022-09-21T01:41:29.646Z,102778.69
2022-09-21T01:44:08.425Z,102777.84
2022-09-21T01:46:40.823Z,102786.34
2022-09-21T01:49:19.840Z,102792.16
2022-09-21T01:51:55.604Z,102790.59
2022-09-21T01:54:30.847Z,102786.44
2022-09-21T01:57:09.319Z,102786.63
2022-09-21T01:59:49.380Z,102781.78
2022-09-21T02:02:25.742Z,102781.25
2022-09-21T02:04:55.664Z,102785.38
2022-09-21T02:07:25.094Z,102780.47
2022-09-21T02:09:57.324Z,102783.50
2022-09-21T02:12:28.046Z,102783.44
2022-09-21T02:14:58.431Z,102785.44
2022-09-21T02:17:46.727Z,102778.50
2022-09-21T02:20:24.614Z,102771.34
2022-09-21T02:23:06.818Z,102771.72
2022-09-21T02:25:51.546Z,102785.38
2022-09-21T02:28:33.875Z,102785.38
2022-09-21T02:31:09.806Z,102789.06
2022-09-21T02:33:49.714Z,102781.53
2022-09-21T02:36:30.575Z,102788.41
2022-09-21T02:39:10.723Z,102785.91
2022-09-21T02:41:51.710Z,102781.47
2022-09-21T02:44:29.207Z,102782.63
2022-09-21T02:47:05.709Z,102782.41
2022-09-21T02:49:40.438Z,102780.69
2022-09-21T02:52:14.192Z,102769.25
2022-09-21T02:54:50.084Z,102777.22
2022-09-21T02:57:23.244Z,102772.19
2022-09-21T02:59:54.165Z,102769.09
2022-09-21T03:02:23.157Z,102772.00
2022-09-21T03:04:54.182Z,102776.47
2022-09-21T03:07:23.606Z,102766.47
2022-09-21T03:09:53.753Z,102770.53
2022-09-21T03:12:23.460Z,102779.59
2022-09-21T03:14:53.440Z,102776.81
2022-09-21T03:17:22.580Z,102778.88
2022-09-21T03:19:55.163Z,102784.44
2022-09-21T03:22:24.153Z,102780.84
2022-09-21T03:24:57.801Z,102771.91
2022-09-21T03:27:26.884Z,102784.56
2022-09-21T03:29:57.679Z,102788.28
2022-09-21T03:32:29.071Z,102786.63
2022-09-21T03:34:59.342Z,102790.19
2022-09-21T03:37:28.209Z,102793.97
2022-09-21T03:39:57.706Z,102791.31
2022-09-21T03:42:26.953Z,102797.84
2022-09-21T03:44:56.908Z,102792.47
2022-09-21T03:47:25.485Z,102787.31
2022-09-21T03:49:54.520Z,102793.72
2022-09-21T03:52:25.102Z,102791.78
2022-09-21T03:54:55.909Z,102786.47
2022-09-21T03:57:25.005Z,102794.66
2022-09-21T03:59:54.285Z,102798.38
2022-09-21T04:02:23.764Z,102793.22
2022-09-21T04:04:53.025Z,102789.69
2022-09-21T04:07:24.423Z,102789.78
2022-09-21T04:09:55.378Z,102785.38
2022-09-21T04:12:24.483Z,102782.88
2022-09-21T04:14:53.829Z,102790.00
2022-09-21T04:17:23.160Z,102781.38
2022-09-21T04:19:53.135Z,102776.56
2022-09-21T04:22:24.859Z,102779.38
2022-09-21T04:24:55.053Z,102783.53
2022-09-21T04:27:25.132Z,102789.25
2022-09-21T04:29:54.218Z,102789.16
2022-09-21T04:32:23.214Z,102787.16
2022-09-21T04:34:52.124Z,102784.13
2022-09-21T04:37:24.746Z,102794.81
2022-09-21T04:39:53.701Z,102790.25
2022-09-21T04:42:23.763Z,102788.47
2022-09-21T04:44:52.882Z,102794.03
2022-09-21T04:47:23.777Z,102797.44
2022-09-21T04:49:54.766Z,102797.78
2022-09-21T04:52:25.037Z,102795.47
2022-09-21T04:54:55.192Z,102791.31
2022-09-21T04:57:25.565Z,102801.16
2022-09-21T04:59:54.669Z,102801.91
2022-09-21T05:02:26.320Z,102799.22
2022-09-21T05:04:58.278Z,102798.34
2022-09-21T05:07:29.719Z,102797.41
2022-09-21T05:10:04.754Z,102798.38
2022-09-21T05:12:35.968Z,102796.88
2022-09-21T05:15:11.361Z,102800.94
2022-09-21T05:17:43.000Z,102803.50
2022-09-21T05:20:13.230Z,102809.59
2022-09-21T05:22:44.954Z,102801.72
2022-09-21T05:25:14.243Z,102809.72
2022-09-21T05:27:43.506Z,102806.75
2022-09-21T05:30:16.336Z,102810.47
2022-09-21T05:32:50.553Z,102819.94
2022-09-21T05:35:35.463Z,102825.13
2022-09-21T05:38:14.435Z,102814.03
2022-09-21T05:40:47.545Z,102815.00
2022-09-21T05:43:19.102Z,102817.91
2022-09-21T05:45:53.816Z,102816.34
2022-09-21T05:48:31.427Z,102816.50
2022-09-21T05:51:09.345Z,102816.72
2022-09-21T05:54:01.477Z,102824.41
2022-09-21T05:56:46.862Z,102829.84
2022-09-21T05:59:45.686Z,102828.75
2022-09-21T06:02:29.079Z,102821.94
2022-09-21T06:05:01.234Z,102826.97
2022-09-21T06:07:30.933Z,102833.19
2022-09-21T06:10:08.898Z,102823.13
2022-09-21T06:12:40.283Z,102824.00
2022-09-21T06:15:15.634Z,102832.97
2022-09-21T06:17:45.711Z,102825.63
2022-09-21T06:20:14.336Z,102832.78
2022-09-21T06:22:43.030Z,102838.06
2022-09-21T06:25:13.774Z,102838.97
2022-09-21T06:27:42.616Z,102833.91
2022-09-21T06:30:15.288Z,102841.88
2022-09-21T06:32:44.260Z,102826.25
2022-09-21T06:35:23.075Z,102833.31
2022-09-21T06:37:56.811Z,102827.44
2022-09-21T06:40:30.787Z,102833.97
2022-09-21T06:47:09.549Z,102827.88
2022-09-21T06:49:43.455Z,102838.94
2022-09-21T06:52:13.052Z,102833.06
2022-09-21T06:54:42.773Z,102836.16
2022-09-21T06:57:15.073Z,102836.22
2022-09-21T06:59:44.194Z,102832.59
2022-09-21T07:02:18.866Z,102833.81
2022-09-21T07:04:50.856Z,102835.31
2022-09-21T07:07:19.950Z,102843.38
2022-09-21T07:10:05.587Z,102850.28
2022-09-21T07:12:41.450Z,102850.94
2022-09-21T07:15:23.808Z,102847.53
2022-09-21T07:18:05.426Z,102840.84
2022-09-21T07:20:36.614Z,102851.69
2022-09-21T07:23:14.990Z,102845.28
2022-09-21T07:25:46.001Z,102844.75
2022-09-21T07:28:18.953Z,102845.50
2022-09-21T07:30:52.033Z,102833.81
2022-09-21T07:33:21.891Z,102839.59
2022-09-21T07:35:56.509Z,102833.81
2022-09-21T07:38:25.223Z,102835.72
2022-09-21T07:40:55.054Z,102831.19
2022-09-21T07:43:25.720Z,102821.94
2022-09-21T07:45:57.215Z,102831.59
2022-09-21T07:48:30.951Z,102833.59
2022-09-21T07:51:07.402Z,102820.63
2022-09-21T07:53:37.250Z,102827.00
2022-09-21T07:56:09.310Z,102812.50
2022-09-21T07:58:58.794Z,102822.59
2022-09-21T08:01:29.203Z,102818.81
2022-09-21T08:04:00.197Z,102817.59
2022-09-21T08:06:33.069Z,102810.94
2022-09-21T08:09:02.484Z,102804.28
2022-09-21T08:11:33.763Z,102816.34
2022-09-21T08:14:07.634Z,102822.09
2022-09-21T08:16:41.472Z,102817.22
2022-09-21T08:19:11.612Z,102820.69
2022-09-21T08:21:42.137Z,102821.06
2022-09-21T08:24:17.864Z,102821.63
2022-09-21T08:26:50.073Z,102819.72
2022-09-21T08:29:21.595Z,102830.56
2022-09-21T08:31:52.699Z,102822.34
2022-09-21T08:34:24.204Z,102823.13
2022-09-21T08:36:55.768Z,102828.47
2022-09-21T08:39:27.089Z,102836.47
2022-09-21T08:42:40.172Z,102830.34
2022-09-21T08:45:17.745Z,102827.63
2022-09-21T08:47:51.951Z,102833.59
2022-09-21T08:50:42.507Z,102840.06
2022-09-21T08:53:19.896Z,102838.41
2022-09-21T08:56:04.019Z,102841.69
2022-09-21T09:02:00.183Z,102837.16
2022-09-21T09:05:04.270Z,102844.69
2022-09-21T09:08:02.566Z,102843.63
2022-09-21T09:10:41.130Z,102844.16
2022-09-21T09:13:40.751Z,102846.34
2022-09-21T09:16:21.225Z,102844.75
2022-09-21T09:18:56.139Z,102846.00
2022-09-21T09:21:32.326Z,102843.06
2022-09-21T09:24:08.671Z,102841.81
2022-09-21T09:26:45.212Z,102853.56
2022-09-21T09:29:24.513Z,102845.47
2022-09-21T09:31:55.555Z,102848.34
2022-09-21T09:34:33.579Z,102851.97
2022-09-21T09:37:11.998Z,102859.16
2022-09-21T09:39:43.137Z,102854.69
2022-09-21T09:42:48.934Z,102852.94
2022-09-21T09:45:45.716Z,102853.38
2022-09-21T09:48:44.422Z,102849.00
2022-09-21T09:51:19.786Z,102856.44
2022-09-21T09:53:50.604Z,102854.00
2022-09-21T09:56:22.807Z,102853.25
2022-09-21T09:58:57.929Z,102848.19
2022-09-21T10:01:43.305Z,102854.38
2022-09-21T10:04:18.273Z,102850.22
2022-09-21T10:06:53.064Z,102845.59
2022-09-21T10:09:28.345Z,102840.78
2022-09-21T10:12:06.815Z,102842.59
2022-09-21T10:14:38.483Z,102838.69
2022-09-21T10:17:10.207Z,102838.78
2022-09-21T10:19:39.734Z,102845.72
2022-09-21T10:22:19.122Z,102848.22
2022-09-21T10:24:53.234Z,102832.34
2022-09-21T10:27:30.977Z,102829.16
2022-09-21T10:30:00.554Z,102833.31
2022-09-21T10:32:32.093Z,102828.19
2022-09-21T10:35:22.716Z,102827.59
2022-09-21T10:38:17.239Z,102827.25
2022-09-21T10:40:53.655Z,102821.69
2022-09-21T10:43:39.897Z,102820.63
2022-09-21T10:46:11.636Z,102818.50
2022-09-21T10:48:40.194Z,102822.03
2022-09-21T10:51:29.938Z,102822.66
2022-09-21T10:54:01.606Z,102819.44
2022-09-21T10:56:33.622Z,102824.66
2022-09-21T10:59:23.056Z,102823.97
2022-09-21T11:01:59.505Z,102818.50
2022-09-21T11:04:48.982Z,102825.97
2022-09-21T11:07:26.493Z,102818.03
2022-09-21T11:10:08.873Z,102818.53
2022-09-21T11:12:54.051Z,102818.53
2022-09-21T11:15:41.516Z,102819.84
2022-09-21T11:18:21.178Z,102815.25
2022-09-21T11:20:57.909Z,102819.25
2022-09-21T11:23:54.737Z,102808.41
2022-09-21T11:26:33.051Z,102812.56
2022-09-21T11:29:12.341Z,102811.31
2022-09-21T11:32:06.216Z,102815.38
2022-09-21T11:34:58.619Z,102816.50
2022-09-21T11:37:51.585Z,102813.72
2022-09-21T11:40:41.420Z,102810.75
2022-09-21T11:43:30.720Z,102806.47
2022-09-21T11:46:16.127Z,102804.22
2022-09-21T11:49:08.950Z,102800.72
2022-09-21T11:52:03.125Z,102802.47
2022-09-21T11:54:59.870Z,102794.97
2022-09-21T11:57:35.090Z,102792.69
2022-09-21T12:00:22.413Z,102797.22
2022-09-21T12:03:46.118Z,102802.25
2022-09-21T12:06:38.620Z,102789.81
2022-09-21T12:09:58.762Z,102787.59
2022-09-21T12:12:42.891Z,102788.84
2022-09-21T12:15:24.479Z,102782.19
2022-09-21T12:18:05.578Z,102779.25
2022-09-21T12:20:44.067Z,102782.59
2022-09-21T12:23:22.475Z,102787.59
2022-09-21T12:25:59.565Z,102790.09
2022-09-21T12:28:38.092Z,102776.75
2022-09-21T12:31:18.955Z,102786.81
2022-09-21T12:33:54.164Z,102781.06
2022-09-21T12:36:30.289Z,102782.63
2022-09-21T12:39:12.607Z,102779.31
2022-09-21T12:41:51.443Z,102778.09
2022-09-21T12:44:27.641Z,102784.66
2022-09-21T12:47:13.990Z,102775.69
2022-09-21T12:49:48.959Z,102774.34
2022-09-21T12:52:24.343Z,102772.94
2022-09-21T12:54:59.201Z,102772.19
2022-09-21T12:58:15.110Z,102755.50
2022-09-21T13:00:57.887Z,102758.28
2022-09-21T13:03:38.002Z,102745.97
2022-09-21T13:06:42.093Z,102750.41
2022-09-21T13:09:20.945Z,102747.09
2022-09-21T13:11:57.896Z,102746.28
2022-09-21T13:14:35.575Z,102756.72
2022-09-21T13:17:08.302Z,102749.13
2022-09-21T13:19:41.681Z,102747.25
2022-09-21T13:22:24.066Z,102747.06
2022-09-21T13:25:09.326Z,102748.19
2022-09-21T13:28:09.232Z,102736.28
2022-09-21T13:30:48.787Z,102744.88
2022-09-21T13:33:41.997Z,102732.75
2022-09-21T13:36:36.352Z,102729.88
2022-09-21T13:39:18.904Z,102731.72
2022-09-21T13:42:03.985Z,102731.75
2022-09-21T13:44:44.096Z,102725.81
2022-09-21T13:47:14.913Z,102725.63
2022-09-21T13:49:57.175Z,102726.78
2022-09-21T13:52:45.566Z,102727.72
2022-09-21T13:55:29.615Z,102728.31
2022-09-21T13:58:04.806Z,102719.44
2022-09-21T14:00:42.290Z,102723.34
2022-09-21T14:03:26.791Z,102721.31
2022-09-21T14:06:02.142Z,102716.75
2022-09-21T14:08:38.779Z,102712.59
2022-09-21T14:11:11.604Z,102712.06
2022-09-21T14:13:48.590Z,102708.28
2022-09-21T14:16:55.764Z,102709.97
2022-09-21T14:20:08.105Z,102711.06
2022-09-21T14:23:12.539Z,102706.28
2022-09-21T14:25:55.931Z,102707.00
2022-09-21T14:28:38.626Z,102708.75
2022-09-21T14:31:18.884Z,102697.56
2022-09-21T14:33:52.153Z,102696.44
2022-09-21T14:36:27.702Z,102689.16
2022-09-21T14:39:04.534Z,102694.13
2022-09-21T14:41:40.705Z,102695.88
2022-09-21T14:44:20.916Z,102699.91
2022-09-21T14:47:34.526Z,102685.13
2022-09-21T14:50:34.071Z,102684.31
2022-09-21T14:53:39.192Z,102681.22
2022-09-21T14:56:42.998Z,102680.75
2022-09-21T14:59:32.182Z,102670.88
2022-09-21T15:02:17.385Z,102677.19
2022-09-21T15:05:02.395Z,102666.75
2022-09-21T15:08:01.359Z,102676.13
2022-09-21T15:11:00.209Z,102680.50
2022-09-21T15:13:55.292Z,102674.94
2022-09-21T15:16:41.281Z,102673.44
2022-09-21T15:19:31.656Z,102672.97
2022-09-21T15:22:21.100Z,102670.94
2022-09-21T15:24:56.310Z,102668.47
2022-09-21T15:27:33.735Z,102661.41
2022-09-21T15:30:07.155Z,102664.94
2022-09-21T15:32:40.866Z,102665.03
2022-09-21T15:35:20.931Z,102664.88
2022-09-21T15:37:55.045Z,102652.84
2022-09-21T15:40:28.182Z,102653.31
2022-09-21T15:43:04.807Z,102650.94
2022-09-21T15:45:58.157Z,102648.66
2022-09-21T15:48:35.130Z,102654.03
2022-09-21T15:51:14.523Z,102657.59
2022-09-21T15:53:51.850Z,102654.25
2022-09-21T15:56:26.595Z,102656.75
2022-09-21T15:59:09.122Z,102647.91
2022-09-21T16:01:50.315Z,102651.72
2022-09-21T16:04:27.133Z,102651.22
2022-09-21T16:07:07.625Z,102648.66
2022-09-21T16:09:46.681Z,102642.03
2022-09-21T16:12:41.170Z,102642.22
2022-09-21T16:15:24.102Z,102644.16
2022-09-21T16:18:05.206Z,102635.44
2022-09-21T16:20:45.397Z,102638.56
2022-09-21T16:23:20.335Z,102628.06
2022-09-21T16:26:01.690Z,102632.25
2022-09-21T16:28:39.352Z,102640.94
2022-09-21T16:31:34.237Z,102632.25
2022-09-21T16:34:45.308Z,102640.94
2022-09-21T16:37:32.484Z,102651.41
2022-09-21T16:40:03.981Z,102639.47
2022-09-21T16:42:35.442Z,102640.44
2022-09-21T16:45:28.728Z,102649.75
2022-09-21T16:48:06.201Z,102641.59
2022-09-21T16:50:36.247Z,102642.41
2022-09-21T16:53:05.598Z,102650.03
2022-09-21T16:55:34.759Z,102659.75
2022-09-21T16:58:03.390Z,102652.03
2022-09-21T17:00:39.197Z,102650.13
2022-09-21T17:03:10.129Z,102647.66
2022-09-21T17:05:40.087Z,102653.34
2022-09-21T17:08:10.067Z,102648.22
2022-09-21T17:10:44.313Z,102648.84
2022-09-21T17:13:26.520Z,102652.84
2022-09-21T17:15:58.594Z,102647.63
2022-09-21T17:18:38.226Z,102649.34
2022-09-21T17:21:14.941Z,102653.59
2022-09-21T17:23:51.262Z,102648.69
2022-09-21T17:26:31.375Z,102646.34
2022-09-21T17:29:03.276Z,102651.47
2022-09-21T17:31:39.293Z,102651.13
2022-09-21T17:34:21.319Z,102644.97
2022-09-21T17:36:51.403Z,102639.81
2022-09-21T17:39:23.003Z,102649.66
2022-09-21T17:41:58.690Z,102643.09
2022-09-21T17:45:02.721Z,102653.00
2022-09-21T17:47:33.952Z,102644.66
2022-09-21T17:50:23.960Z,102649.22
2022-09-21T17:53:11.254Z,102643.78
2022-09-21T17:55:46.092Z,102645.22
2022-09-21T17:58:41.759Z,102655.47
2022-09-21T18:01:25.053Z,102653.25
2022-09-21T18:03:57.189Z,102651.25
2022-09-21T18:06:28.259Z,102657.88
2022-09-21T18:08:58.640Z,102652.31
2022-09-21T18:12:02.181Z,102652.41
2022-09-21T18:14:46.951Z,102659.00
2022-09-21T18:17:40.229Z,102668.91
2022-09-21T18:20:40.511Z,102660.06
2022-09-21T18:23:28.163Z,102663.72
2022-09-21T18:26:03.137Z,102670.22
2022-09-21T18:28:40.482Z,102669.84
2022-09-21T18:31:44.299Z,102670.22
2022-09-21T18:34:48.521Z,102668.28
2022-09-21T18:37:36.987Z,102668.38
2022-09-21T18:40:27.595Z,102665.75
2022-09-21T18:43:07.634Z,102678.88
2022-09-21T18:45:46.224Z,102680.22
2022-09-21T18:48:32.794Z,102665.41
2022-09-21T18:51:15.254Z,102674.81
2022-09-21T18:53:54.364Z,102674.09
2022-09-21T18:56:42.230Z,102675.53
2022-09-21T18:59:15.639Z,102669.78
2022-09-21T19:01:48.530Z,102675.53
2022-09-21T19:04:21.378Z,102681.34
2022-09-21T19:07:09.078Z,102671.16
2022-09-21T19:09:52.294Z,102672.06
2022-09-21T19:13:03.001Z,102677.94
2022-09-21T19:16:00.815Z,102685.78
2022-09-21T19:18:54.751Z,102689.69
2022-09-21T19:21:46.600Z,102684.28
2022-09-21T19:24:32.678Z,102693.66
2022-09-21T19:27:32.879Z,102694.25
2022-09-21T19:30:12.293Z,102687.50
2022-09-21T19:32:58.343Z,102698.88
2022-09-21T19:35:35.786Z,102693.78
2022-09-21T19:38:19.348Z,102695.41
2022-09-21T19:41:02.452Z,102700.56
2022-09-21T19:43:43.220Z,102684.34
2022-09-21T19:46:26.712Z,102688.91
2022-09-21T19:49:02.815Z,102694.06
2022-09-21T19:51:41.922Z,102692.16
2022-09-21T19:54:36.200Z,102684.84
2022-09-21T19:57:36.287Z,102685.00
2022-09-21T20:00:13.429Z,102686.75
2022-09-21T20:02:57.718Z,102687.56
2022-09-21T20:05:51.021Z,102686.47
2022-09-21T20:08:29.743Z,102682.09
2022-09-21T20:11:23.511Z,102689.31
2022-09-21T20:14:29.270Z,102680.75
2022-09-21T20:17:10.312Z,102687.28
2022-09-21T20:19:53.360Z,102686.16
2022-09-21T20:22:39.090Z,102685.84
2022-09-21T20:25:26.619Z,102686.16
2022-09-21T20:28:06.565Z,102691.47
2022-09-21T20:30:56.001Z,102691.69
2022-09-21T20:33:47.852Z,102684.75
2022-09-21T20:36:23.431Z,102686.59
2022-09-21T20:38:59.556Z,102690.53
2022-09-21T20:41:31.786Z,102689.63
2022-09-21T20:44:03.569Z,102688.78
2022-09-21T20:46:33.320Z,102684.47
2022-09-21T20:49:07.376Z,102685.59
2022-09-21T20:51:40.671Z,102684.16
2022-09-21T20:54:10.328Z,102679.66
2022-09-21T20:56:40.911Z,102679.69
2022-09-21T20:59:14.094Z,102683.22
2022-09-21T21:01:42.602Z,102678.38
2022-09-21T21:04:12.487Z,102675.28
2022-09-21T21:06:43.074Z,102673.88
2022-09-21T21:09:14.277Z,102678.97
2022-09-21T21:11:43.897Z,102677.50
2022-09-21T21:14:12.758Z,102678.75
2022-09-21T21:16:42.114Z,102686.44
2022-09-21T21:19:10.946Z,102684.78
2022-09-21T21:21:41.758Z,102685.13
2022-09-21T21:24:29.533Z,102686.31
2022-09-21T21:27:02.097Z,102676.31
2022-09-21T21:29:33.383Z,102687.25
2022-09-21T21:32:03.767Z,102684.19
2022-09-21T21:34:32.835Z,102684.06
2022-09-21T21:37:04.645Z,102685.19
2022-09-21T21:39:37.245Z,102678.25
2022-09-21T21:42:08.668Z,102685.59
2022-09-21T21:44:37.663Z,102668.72
2022-09-21T21:47:34.789Z,102666.53
2022-09-21T21:49:58.033Z,102680.38
2022-09-21T21:52:28.598Z,102670.28
2022-09-21T21:54:59.357Z,102674.31
2022-09-21T21:57:28.183Z,102679.19
2022-09-21T21:59:59.530Z,102674.47
2022-09-21T22:02:29.681Z,102677.16
2022-09-21T22:05:02.667Z,102673.91
2022-09-21T22:07:33.872Z,102675.69
2022-09-21T22:10:02.386Z,102672.50
2022-09-21T22:12:34.584Z,102666.66
2022-09-21T22:15:03.853Z,102662.84
2022-09-21T22:17:32.813Z,102675.31
2022-09-21T22:20:01.909Z,102669.88
2022-09-21T22:22:30.831Z,102664.09
2022-09-21T22:25:02.317Z,102669.50
2022-09-21T22:27:32.502Z,102664.31
2022-09-21T22:30:03.301Z,102661.63
2022-09-21T22:32:32.253Z,102655.34
2022-09-21T22:35:01.490Z,102660.44
2022-09-21T22:37:31.411Z,102658.38
2022-09-21T22:40:07.042Z,102650.78
2022-09-21T22:42:37.195Z,102657.50
2022-09-21T22:45:06.680Z,102660.91
2022-09-21T22:47:36.815Z,102668.16
2022-09-21T22:50:06.291Z,102664.41
2022-09-21T22:52:36.431Z,102663.53
2022-09-21T22:55:11.413Z,102660.53
2022-09-21T22:57:41.688Z,102658.00
2022-09-21T23:00:13.185Z,102654.78
2022-09-21T23:02:45.146Z,102661.03
2022-09-21T23:05:14.678Z,102660.16
2022-09-21T23:07:45.955Z,102650.00
2022-09-21T23:10:18.749Z,102652.88
2022-09-21T23:12:48.972Z,102651.25
2022-09-21T23:15:18.260Z,102647.88
2022-09-21T23:17:47.773Z,102647.13
2022-09-21T23:20:22.358Z,102648.25
2022-09-21T23:22:52.020Z,102648.69
2022-09-21T23:25:24.238Z,102649.69
2022-09-21T23:27:55.242Z,102651.63
2022-09-21T23:30:24.471Z,102649.88
2022-09-21T23:32:56.647Z,102652.91
2022-09-21T23:35:29.819Z,102664.78
2022-09-21T23:38:02.178Z,102655.16
2022-09-21T23:40:32.873Z,102652.84
2022-09-21T23:43:02.297Z,102647.72
2022-09-21T23:45:31.034Z,102654.34
2022-09-21T23:48:04.010Z,102653.94
2022-09-21T23:50:32.953Z,102647.78
2022-09-21T23:53:03.420Z,102641.66
2022-09-21T23:55:34.176Z,102642.25
2022-09-21T23:58:02.560Z,102650.34
